sensor_id;sensor_type;location;lat;lon;timestamp;pressure;altitude;pressure_sealevel;temperature;humidity
68366;BME280;55283;51.466;5.478;2022-12-07T00:01:20;101661.81;;;19.57;44.43
68366;BME280;55283;51.466;5.478;2022-12-07T00:09:42;101655.44;;;19.56;44.52
68366;BME280;55283;51.466;5.478;2022-12-07T00:12:07;101649.47;;;19.51;44.55
68366;BME280;55283;51.466;5.478;2022-12-07T00:14:33;101659.41;;;19.55;44.59
68366;BME280;55283;51.466;5.478;2022-12-07T00:16:58;101648.63;;;19.54;44.50
68366;BME280;55283;51.466;5.478;2022-12-07T00:19:23;101654.25;;;19.50;44.72
68366;BME280;55283;51.466;5.478;2022-12-07T00:21:49;101659.44;;;19.52;44.75
68366;BME280;55283;51.466;5.478;2022-12-07T00:24:14;101654.22;;;19.54;44.79
68366;BME280;55283;51.466;5.478;2022-12-07T00:26:41;101652.22;;;19.54;44.50
68366;BME280;55283;51.466;5.478;2022-12-07T00:29:13;101641.06;;;19.51;44.54
68366;BME280;55283;51.466;5.478;2022-12-07T00:31:39;101645.03;;;19.53;44.41
68366;BME280;55283;51.466;5.478;2022-12-07T00:34:06;101639.06;;;19.51;44.45
68366;BME280;55283;51.466;5.478;2022-12-07T00:36:32;101635.06;;;19.52;44.60
68366;BME280;55283;51.466;5.478;2022-12-07T00:38:59;101633.91;;;19.50;44.41
68366;BME280;55283;51.466;5.478;2022-12-07T00:41:26;101635.88;;;19.49;44.42
68366;BME280;55283;51.466;5.478;2022-12-07T00:43:52;101636.69;;;19.50;44.45
68366;BME280;55283;51.466;5.478;2022-12-07T00:46:18;101627.50;;;19.49;44.55
68366;BME280;55283;51.466;5.478;2022-12-07T00:48:45;101635.09;;;19.49;44.30
68366;BME280;55283;51.466;5.478;2022-12-07T00:51:12;101640.28;;;19.50;44.39
68366;BME280;55283;51.466;5.478;2022-12-07T00:53:38;101614.03;;;19.37;44.63
68366;BME280;55283;51.466;5.478;2022-12-07T00:56:13;101630.72;;;19.48;44.49
68366;BME280;55283;51.466;5.478;2022-12-07T00:58:38;101631.50;;;19.48;44.45
68366;BME280;55283;51.466;5.478;2022-12-07T01:01:06;101634.72;;;19.47;44.45
68366;BME280;55283;51.466;5.478;2022-12-07T01:03:32;101629.94;;;19.47;44.50
68366;BME280;55283;51.466;5.478;2022-12-07T01:05:58;101624.38;;;19.43;44.44
68366;BME280;55283;51.466;5.478;2022-12-07T01:08:25;101633.13;;;19.45;44.48
68366;BME280;55283;51.466;5.478;2022-12-07T01:11:03;101632.00;;;19.39;44.51
68366;BME280;55283;51.466;5.478;2022-12-07T01:13:29;101634.34;;;19.44;44.29
68366;BME280;55283;51.466;5.478;2022-12-07T01:15:58;101634.72;;;19.47;44.24
68366;BME280;55283;51.466;5.478;2022-12-07T01:18:26;101626.84;;;19.38;44.28
68366;BME280;55283;51.466;5.478;2022-12-07T01:21:19;101633.91;;;19.46;44.41
68366;BME280;55283;51.466;5.478;2022-12-07T01:39:56;101634.44;;;19.34;44.69
68366;BME280;55283;51.466;5.478;2022-12-07T01:42:22;101632.88;;;19.33;44.52
68366;BME280;55283;51.466;5.478;2022-12-07T01:47:47;101631.66;;;19.34;44.20
68366;BME280;55283;51.466;5.478;2022-12-07T01:50:14;101629.28;;;19.32;44.41
68366;BME280;55283;51.466;5.478;2022-12-07T01:52:39;101629.72;;;19.27;44.42
68366;BME280;55283;51.466;5.478;2022-12-07T01:55:09;101640.41;;;19.36;44.40
68366;BME280;55283;51.466;5.478;2022-12-07T01:57:38;101644.44;;;19.35;44.38
68366;BME280;55283;51.466;5.478;2022-12-07T02:03:36;101630.47;;;19.35;44.22
68366;BME280;55283;51.466;5.478;2022-12-07T02:06:04;101628.84;;;19.34;43.94
68366;BME280;55283;51.466;5.478;2022-12-07T02:08:31;101634.03;;;19.35;44.27
68366;BME280;55283;51.466;5.478;2022-12-07T02:10:57;101622.91;;;19.28;44.14
68366;BME280;55283;51.466;5.478;2022-12-07T02:13:25;101620.06;;;19.35;44.38
68366;BME280;55283;51.466;5.478;2022-12-07T02:16:13;101623.66;;;19.36;44.21
68366;BME280;55283;51.466;5.478;2022-12-07T02:27:06;101619.34;;;19.28;44.41
68366;BME280;55283;51.466;5.478;2022-12-07T02:29:43;101626.88;;;19.31;44.12
68366;BME280;55283;51.466;5.478;2022-12-07T02:34:50;101619.34;;;19.28;44.06
68366;BME280;55283;51.466;5.478;2022-12-07T02:37:48;101628.84;;;19.34;44.28
68366;BME280;55283;51.466;5.478;2022-12-07T02:40:32;101626.50;;;19.32;44.00
68366;BME280;55283;51.466;5.478;2022-12-07T02:43:06;101616.88;;;19.33;44.18
68366;BME280;55283;51.466;5.478;2022-12-07T02:45:35;101624.47;;;19.33;44.10
68366;BME280;55283;51.466;5.478;2022-12-07T02:48:02;101612.13;;;19.30;44.10
68366;BME280;55283;51.466;5.478;2022-12-07T02:50:29;101618.09;;;19.32;44.15
68366;BME280;55283;51.466;5.478;2022-12-07T02:52:55;101621.28;;;19.31;44.17
68366;BME280;55283;51.466;5.478;2022-12-07T02:55:28;101612.53;;;19.29;43.96
68366;BME280;55283;51.466;5.478;2022-12-07T03:00:27;101616.50;;;19.31;44.10
68366;BME280;55283;51.466;5.478;2022-12-07T03:03:00;101622.88;;;19.32;44.17
68366;BME280;55283;51.466;5.478;2022-12-07T03:08:25;101617.31;;;19.28;43.96
68366;BME280;55283;51.466;5.478;2022-12-07T03:11:07;101616.53;;;19.28;44.18
68366;BME280;55283;51.466;5.478;2022-12-07T03:14:02;101625.31;;;19.30;43.98
68366;BME280;55283;51.466;5.478;2022-12-07T03:16:37;101620.91;;;19.29;44.00
68366;BME280;55283;51.466;5.478;2022-12-07T03:19:14;101622.97;;;19.25;44.01
68366;BME280;55283;51.466;5.478;2022-12-07T03:21:43;101627.72;;;19.28;44.11
68366;BME280;55283;51.466;5.478;2022-12-07T03:24:13;101623.34;;;19.27;44.07
68366;BME280;55283;51.466;5.478;2022-12-07T03:26:49;101620.56;;;19.27;43.84
68366;BME280;55283;51.466;5.478;2022-12-07T03:29:25;101619.75;;;19.26;44.20
68366;BME280;55283;51.466;5.478;2022-12-07T03:31:58;101616.16;;;19.26;43.98
68366;BME280;55283;51.466;5.478;2022-12-07T03:34:46;101606.59;;;19.23;43.94
68366;BME280;55283;51.466;5.478;2022-12-07T03:37:29;101607.75;;;19.26;43.96
68366;BME280;55283;51.466;5.478;2022-12-07T03:42:32;101609.78;;;19.25;43.85
68366;BME280;55283;51.466;5.478;2022-12-07T03:44:58;101616.16;;;19.26;44.09
68366;BME280;55283;51.466;5.478;2022-12-07T03:47:35;101618.94;;;19.26;43.72
68366;BME280;55283;51.466;5.478;2022-12-07T03:50:22;101607.75;;;19.26;43.71
68366;BME280;55283;51.466;5.478;2022-12-07T03:53:12;101606.97;;;19.25;43.82
68366;BME280;55283;51.466;5.478;2022-12-07T03:55:42;101616.16;;;19.26;43.87
68366;BME280;55283;51.466;5.478;2022-12-07T03:58:12;101616.63;;;19.20;44.02
68366;BME280;55283;51.466;5.478;2022-12-07T04:00:41;101625.34;;;19.26;43.95
68366;BME280;55283;51.466;5.478;2022-12-07T04:03:07;101614.56;;;19.25;43.92
68366;BME280;55283;51.466;5.478;2022-12-07T04:05:32;101609.03;;;19.21;43.97
68366;BME280;55283;51.466;5.478;2022-12-07T04:07:58;101613.00;;;19.23;43.90
68366;BME280;55283;51.466;5.478;2022-12-07T04:10:23;101614.56;;;19.25;43.91
68366;BME280;55283;51.466;5.478;2022-12-07T04:12:48;101617.38;;;19.25;43.74
68366;BME280;55283;51.466;5.478;2022-12-07T04:15:14;101608.97;;;19.25;43.74
68366;BME280;55283;51.466;5.478;2022-12-07T04:17:39;101595.44;;;19.19;43.95
68366;BME280;55283;51.466;5.478;2022-12-07T04:20:06;101603.78;;;19.27;43.92
68366;BME280;55283;51.466;5.478;2022-12-07T04:22:32;101607.41;;;19.23;43.78
68366;BME280;55283;51.466;5.478;2022-12-07T04:24:58;101616.56;;;19.24;43.93
68366;BME280;55283;51.466;5.478;2022-12-07T04:27:23;101608.97;;;19.25;43.78
68366;BME280;55283;51.466;5.478;2022-12-07T04:29:48;101603.84;;;19.19;43.88
68366;BME280;55283;51.466;5.478;2022-12-07T04:32:14;101608.59;;;19.22;43.97
68366;BME280;55283;51.466;5.478;2022-12-07T04:34:39;101600.63;;;19.21;43.92
68366;BME280;55283;51.466;5.478;2022-12-07T04:37:05;101594.25;;;19.20;43.87
68366;BME280;55283;51.466;5.478;2022-12-07T04:39:32;101594.22;;;19.24;43.82
68366;BME280;55283;51.466;5.478;2022-12-07T04:41:58;101585.50;;;19.18;44.00
68366;BME280;55283;51.466;5.478;2022-12-07T04:44:25;101591.81;;;19.22;43.80
68366;BME280;55283;51.466;5.478;2022-12-07T04:46:51;101581.47;;;19.19;43.79
68366;BME280;55283;51.466;5.478;2022-12-07T04:49:17;101588.63;;;19.24;43.72
68366;BME280;55283;51.466;5.478;2022-12-07T04:51:43;101587.84;;;19.23;43.65
68366;BME280;55283;51.466;5.478;2022-12-07T04:54:09;101593.44;;;19.23;43.67
68366;BME280;55283;51.466;5.478;2022-12-07T04:56:35;101587.84;;;19.23;43.59
68366;BME280;55283;51.466;5.478;2022-12-07T04:59:01;101595.41;;;19.23;43.65
68366;BME280;55283;51.466;5.478;2022-12-07T05:01:27;101599.03;;;19.23;43.46
68366;BME280;55283;51.466;5.478;2022-12-07T05:03:53;101597.41;;;19.22;43.77
68366;BME280;55283;51.466;5.478;2022-12-07T05:06:19;101599.03;;;19.23;43.82
68366;BME280;55283;51.466;5.478;2022-12-07T05:08:44;101591.88;;;19.19;43.57
68366;BME280;55283;51.466;5.478;2022-12-07T05:11:11;101596.22;;;19.23;43.62
68366;BME280;55283;51.466;5.478;2022-12-07T05:14:00;101589.03;;;19.22;43.70
68366;BME280;55283;51.466;5.478;2022-12-07T05:16:26;101584.66;;;19.21;43.48
68366;BME280;55283;51.466;5.478;2022-12-07T05:18:51;101592.59;;;19.23;43.32
68366;BME280;55283;51.466;5.478;2022-12-07T05:21:17;101586.22;;;19.22;43.66
68366;BME280;55283;51.466;5.478;2022-12-07T05:23:42;101587.03;;;19.23;43.55
68366;BME280;55283;51.466;5.478;2022-12-07T05:26:07;101590.25;;;19.21;43.75
68366;BME280;55283;51.466;5.478;2022-12-07T05:28:33;101583.91;;;19.17;43.39
68366;BME280;55283;51.466;5.478;2022-12-07T05:30:58;101583.06;;;19.20;43.74
68366;BME280;55283;51.466;5.478;2022-12-07T05:33:24;101587.44;;;19.21;43.60
68366;BME280;55283;51.466;5.478;2022-12-07T05:35:49;101592.66;;;19.19;43.51
68366;BME280;55283;51.466;5.478;2022-12-07T05:38:14;101589.47;;;19.21;43.78
68366;BME280;55283;51.466;5.478;2022-12-07T05:40:40;101587.44;;;19.21;43.23
68366;BME280;55283;51.466;5.478;2022-12-07T05:43:05;101594.25;;;19.20;43.61
68366;BME280;55283;51.466;5.478;2022-12-07T05:45:31;101577.50;;;19.20;43.70
68366;BME280;55283;51.466;5.478;2022-12-07T05:47:56;101574.69;;;19.20;43.48
68366;BME280;55283;51.466;5.478;2022-12-07T05:50:21;101583.06;;;19.20;43.37
68366;BME280;55283;51.466;5.478;2022-12-07T05:52:47;101563.53;;;19.17;43.70
68366;BME280;55283;51.466;5.478;2022-12-07T05:55:13;101568.28;;;19.20;43.33
68366;BME280;55283;51.466;5.478;2022-12-07T05:57:38;101579.09;;;19.18;43.50
68366;BME280;55283;51.466;5.478;2022-12-07T06:00:05;101567.94;;;19.18;43.43
68366;BME280;55283;51.466;5.478;2022-12-07T06:02:30;101571.50;;;19.18;43.75
68366;BME280;55283;51.466;5.478;2022-12-07T06:04:56;101570.72;;;19.18;43.56
68366;BME280;55283;51.466;5.478;2022-12-07T06:07:21;101568.75;;;19.15;43.53
68366;BME280;55283;51.466;5.478;2022-12-07T06:09:46;101581.47;;;19.19;43.45
68366;BME280;55283;51.466;5.478;2022-12-07T06:12:12;101579.91;;;19.18;43.42
68366;BME280;55283;51.466;5.478;2022-12-07T06:14:57;101583.47;;;19.19;43.62
68366;BME280;55283;51.466;5.478;2022-12-07T06:17:22;101587.50;;;19.18;43.63
68366;BME280;55283;51.466;5.478;2022-12-07T06:19:48;101590.28;;;19.18;43.56
68366;BME280;55283;51.466;5.478;2022-12-07T06:22:13;101585.53;;;19.15;43.52
68366;BME280;55283;51.466;5.478;2022-12-07T06:24:39;101581.94;;;19.14;43.33
68366;BME280;55283;51.466;5.478;2022-12-07T06:27:05;101564.84;;;19.09;43.54
68366;BME280;55283;51.466;5.478;2022-12-07T06:29:31;101580.72;;;19.15;43.58
68366;BME280;55283;51.466;5.478;2022-12-07T06:31:57;101575.94;;;19.16;43.73
68366;BME280;55283;51.466;5.478;2022-12-07T06:34:23;101591.53;;;19.13;43.66
68366;BME280;55283;51.466;5.478;2022-12-07T06:36:50;101586.72;;;19.14;44.06
68366;BME280;55283;51.466;5.478;2022-12-07T06:39:25;101581.50;;;19.16;44.49
68366;BME280;55283;51.466;5.478;2022-12-07T06:41:52;101578.00;;;19.08;44.18
68366;BME280;55283;51.466;5.478;2022-12-07T06:44:18;101580.06;;;19.00;44.41
68366;BME280;55283;51.466;5.478;2022-12-07T06:46:44;101590.38;;;19.07;44.50
68366;BME280;55283;51.466;5.478;2022-12-07T06:49:09;101588.03;;;19.06;44.67
68366;BME280;55283;51.466;5.478;2022-12-07T06:51:35;101588.38;;;19.08;44.81
68366;BME280;55283;51.466;5.478;2022-12-07T06:54:02;101593.56;;;19.09;44.84
68366;BME280;55283;51.466;5.478;2022-12-07T06:56:28;101588.75;;;19.10;44.91
68366;BME280;55283;51.466;5.478;2022-12-07T06:58:54;101584.66;;;19.21;44.54
68366;BME280;55283;51.466;5.478;2022-12-07T07:01:19;101591.75;;;19.30;44.65
68366;BME280;55283;51.466;5.478;2022-12-07T07:03:46;101587.78;;;19.27;45.16
68366;BME280;55283;51.466;5.478;2022-12-07T07:06:12;101580.59;;;19.30;45.32
68366;BME280;55283;51.466;5.478;2022-12-07T07:08:39;101585.34;;;19.33;45.19
68366;BME280;55283;51.466;5.478;2022-12-07T07:11:05;101583.72;;;19.35;45.36
68366;BME280;55283;51.466;5.478;2022-12-07T07:13:31;101587.31;;;19.36;45.36
68366;BME280;55283;51.466;5.478;2022-12-07T07:15:57;101590.16;;;19.32;43.82
68366;BME280;55283;51.466;5.478;2022-12-07T07:18:23;101587.97;;;19.09;42.08
68366;BME280;55283;51.466;5.478;2022-12-07T07:20:50;101595.19;;;19.07;44.14
68366;BME280;55283;51.466;5.478;2022-12-07T07:23:16;101595.97;;;19.07;45.01
68366;BME280;55283;51.466;5.478;2022-12-07T07:25:41;101594.75;;;19.08;45.24
68366;BME280;55283;51.466;5.478;2022-12-07T07:28:07;101589.50;;;19.17;44.99
68366;BME280;55283;51.466;5.478;2022-12-07T07:30:32;101589.56;;;19.10;45.11
68366;BME280;55283;51.466;5.478;2022-12-07T07:32:58;101589.94;;;19.12;45.12
68366;BME280;55283;51.466;5.478;2022-12-07T07:35:25;101595.09;;;19.17;44.57
68366;BME280;55283;51.466;5.478;2022-12-07T07:37:51;101595.97;;;19.07;44.39
68366;BME280;55283;51.466;5.478;2022-12-07T07:40:16;101601.94;;;19.09;43.84
68366;BME280;55283;51.466;5.478;2022-12-07T07:42:42;101599.13;;;19.13;44.45
68366;BME280;55283;51.466;5.478;2022-12-07T07:45:08;101601.50;;;19.14;44.47
68366;BME280;55283;51.466;5.478;2022-12-07T07:47:33;101608.72;;;19.12;44.79
68366;BME280;55283;51.466;5.478;2022-12-07T07:49:59;101599.16;;;19.09;45.39
68366;BME280;55283;51.466;5.478;2022-12-07T07:52:25;101606.66;;;19.16;45.08
68366;BME280;55283;51.466;5.478;2022-12-07T07:54:50;101600.69;;;19.17;44.81
68366;BME280;55283;51.466;5.478;2022-12-07T07:57:16;101606.63;;;19.19;45.01
68366;BME280;55283;51.466;5.478;2022-12-07T07:59:42;101608.59;;;19.22;44.98
68366;BME280;55283;51.466;5.478;2022-12-07T08:02:14;101599.81;;;19.24;44.89
68366;BME280;55283;51.466;5.478;2022-12-07T08:04:39;101601.38;;;19.25;44.60
68366;BME280;55283;51.466;5.478;2022-12-07T08:07:05;101606.19;;;19.25;44.42
68366;BME280;55283;51.466;5.478;2022-12-07T08:09:30;101600.97;;;19.27;44.61
68366;BME280;55283;51.466;5.478;2022-12-07T08:11:55;101603.84;;;19.19;44.83
68366;BME280;55283;51.466;5.478;2022-12-07T08:14:21;101609.50;;;19.12;44.83
68366;BME280;55283;51.466;5.478;2022-12-07T08:16:46;101609.03;;;19.21;44.89
68366;BME280;55283;51.466;5.478;2022-12-07T08:19:11;101599.84;;;19.20;44.83
68366;BME280;55283;51.466;5.478;2022-12-07T08:21:37;101609.38;;;19.27;44.69
68366;BME280;55283;51.466;5.478;2022-12-07T08:24:03;101615.78;;;19.23;44.89
68366;BME280;55283;51.466;5.478;2022-12-07T08:26:28;101622.97;;;19.25;44.59
68366;BME280;55283;51.466;5.478;2022-12-07T08:28:53;101628.16;;;19.22;44.42
68366;BME280;55283;51.466;5.478;2022-12-07T08:31:19;101610.69;;;19.11;44.62
68366;BME280;55283;51.466;5.478;2022-12-07T08:33:46;101619.47;;;19.13;44.40
68366;BME280;55283;51.466;5.478;2022-12-07T08:36:12;101627.44;;;19.15;44.90
68366;BME280;55283;51.466;5.478;2022-12-07T08:38:39;101633.44;;;19.13;44.81
68366;BME280;55283;51.466;5.478;2022-12-07T08:41:06;101637.44;;;19.12;44.74
68366;BME280;55283;51.466;5.478;2022-12-07T08:43:32;101637.84;;;19.14;44.45
68366;BME280;55283;51.466;5.478;2022-12-07T08:46:21;101638.25;;;19.13;44.59
68366;BME280;55283;51.466;5.478;2022-12-07T08:48:53;101631.38;;;19.21;44.15
68366;BME280;55283;51.466;5.478;2022-12-07T08:51:20;101615.81;;;19.20;44.25
68366;BME280;55283;51.466;5.478;2022-12-07T08:53:46;101620.91;;;19.29;44.16
68366;BME280;55283;51.466;5.478;2022-12-07T08:56:12;101628.50;;;19.28;44.04
68366;BME280;55283;51.466;5.478;2022-12-07T08:58:38;101624.56;;;19.22;44.51
68366;BME280;55283;51.466;5.478;2022-12-07T09:01:04;101615.78;;;19.23;44.76
68366;BME280;55283;51.466;5.478;2022-12-07T09:03:30;101629.69;;;19.31;44.42
68366;BME280;55283;51.466;5.478;2022-12-07T09:05:57;101625.31;;;19.30;42.87
68366;BME280;55283;51.466;5.478;2022-12-07T09:08:26;101624.53;;;19.29;42.54
68366;BME280;55283;51.466;5.478;2022-12-07T09:10:55;101621.34;;;19.27;42.84
68366;BME280;55283;51.466;5.478;2022-12-07T09:13:20;101615.31;;;19.29;43.11
68366;BME280;55283;51.466;5.478;2022-12-07T09:15:45;101616.56;;;19.24;43.91
68366;BME280;55283;51.466;5.478;2022-12-07T09:18:11;101622.22;;;19.20;43.56
68366;BME280;55283;51.466;5.478;2022-12-07T09:20:36;101628.59;;;19.21;43.84
68366;BME280;55283;51.466;5.478;2022-12-07T09:23:02;101617.81;;;19.19;43.64
68366;BME280;55283;51.466;5.478;2022-12-07T09:25:27;101618.19;;;19.21;43.80
68366;BME280;55283;51.466;5.478;2022-12-07T09:27:57;101622.22;;;19.17;44.12
68366;BME280;55283;51.466;5.478;2022-12-07T09:30:22;101612.69;;;19.14;43.88
68366;BME280;55283;51.466;5.478;2022-12-07T09:32:48;101619.44;;;19.17;43.92
68366;BME280;55283;51.466;5.478;2022-12-07T09:35:13;101615.44;;;19.18;43.69
68366;BME280;55283;51.466;5.478;2022-12-07T09:37:39;101613.81;;;19.20;43.76
68366;BME280;55283;51.466;5.478;2022-12-07T09:40:05;101620.13;;;19.28;43.84
68366;BME280;55283;51.466;5.478;2022-12-07T09:42:39;101621.38;;;19.23;43.78
68366;BME280;55283;51.466;5.478;2022-12-07T09:45:32;101620.16;;;19.25;44.13
68366;BME280;55283;51.466;5.478;2022-12-07T09:47:59;101618.94;;;19.26;44.14
68366;BME280;55283;51.466;5.478;2022-12-07T09:50:27;101618.50;;;19.31;44.26
68366;BME280;55283;51.466;5.478;2022-12-07T09:52:55;101614.47;;;19.32;44.23
68366;BME280;55283;51.466;5.478;2022-12-07T09:55:25;101625.22;;;19.37;43.87
68366;BME280;55283;51.466;5.478;2022-12-07T09:57:52;101620.84;;;19.36;44.28
68366;BME280;55283;51.466;5.478;2022-12-07T10:00:20;101620.41;;;19.37;44.35
68366;BME280;55283;51.466;5.478;2022-12-07T10:03:08;101619.56;;;19.44;44.36
68366;BME280;55283;51.466;5.478;2022-12-07T10:05:43;101614.72;;;19.48;44.52
68366;BME280;55283;51.466;5.478;2022-12-07T10:08:13;101614.66;;;19.55;44.87
68366;BME280;55283;51.466;5.478;2022-12-07T10:10:39;101609.41;;;19.64;44.81
68366;BME280;55283;51.466;5.478;2022-12-07T10:13:15;101606.59;;;19.64;44.60
68366;BME280;55283;51.466;5.478;2022-12-07T10:15:52;101605.81;;;19.64;44.94
68366;BME280;55283;51.466;5.478;2022-12-07T10:23:36;101600.84;;;19.79;44.99
68366;BME280;55283;51.466;5.478;2022-12-07T10:26:30;101595.97;;;19.83;45.17
68366;BME280;55283;51.466;5.478;2022-12-07T10:29:00;101592.38;;;19.82;44.67
68366;BME280;55283;51.466;5.478;2022-12-07T10:31:26;101593.91;;;19.87;44.74
68366;BME280;55283;51.466;5.478;2022-12-07T10:33:58;101588.69;;;19.89;44.66
68366;BME280;55283;51.466;5.478;2022-12-07T10:39:11;101574.31;;;19.90;44.97
68366;BME280;55283;51.466;5.478;2022-12-07T10:41:57;101576.59;;;19.99;44.64
68366;BME280;55283;51.466;5.478;2022-12-07T10:44:26;101570.16;;;20.02;44.72
68366;BME280;55283;51.466;5.478;2022-12-07T10:53:01;101563.66;;;20.09;44.71
68366;BME280;55283;51.466;5.478;2022-12-07T10:58:27;101563.53;;;20.16;44.50
68366;BME280;55283;51.466;5.478;2022-12-07T11:03:48;101555.44;;;20.22;44.56
68366;BME280;55283;51.466;5.478;2022-12-07T11:06:30;101550.59;;;20.26;44.43
68366;BME280;55283;51.466;5.478;2022-12-07T11:09:16;101540.25;;;20.23;44.40
68366;BME280;55283;51.466;5.478;2022-12-07T11:14:56;101532.97;;;20.29;44.70
68366;BME280;55283;51.466;5.478;2022-12-07T11:17:59;101540.88;;;20.34;44.68
68366;BME280;55283;51.466;5.478;2022-12-07T11:21:02;101541.25;;;20.40;44.74
68366;BME280;55283;51.466;5.478;2022-12-07T11:26:40;101534.81;;;20.39;44.74
68366;BME280;55283;51.466;5.478;2022-12-07T11:37:17;101516.88;;;20.33;45.68
68366;BME280;55283;51.466;5.478;2022-12-07T11:39:52;101523.28;;;20.33;46.74
68366;BME280;55283;51.466;5.478;2022-12-07T11:42:24;101512.44;;;20.35;46.26
68366;BME280;55283;51.466;5.478;2022-12-07T11:44:52;101518.47;;;20.38;45.91
68366;BME280;55283;51.466;5.478;2022-12-07T11:52:48;101511.66;;;20.35;45.74
68366;BME280;55283;51.466;5.478;2022-12-07T11:58:13;101497.78;;;20.28;45.59
68366;BME280;55283;51.466;5.478;2022-12-07T12:00:41;101506.47;;;20.33;45.54
68366;BME280;55283;51.466;5.478;2022-12-07T12:03:15;101500.22;;;20.26;45.57
68366;BME280;55283;51.466;5.478;2022-12-07T12:05:45;101503.31;;;20.31;45.49
68366;BME280;55283;51.466;5.478;2022-12-07T12:08:17;101501.00;;;20.26;45.56
68366;BME280;55283;51.466;5.478;2022-12-07T12:19:22;101490.72;;;20.20;45.39
68366;BME280;55283;51.466;5.478;2022-12-07T12:22:00;101495.56;;;20.16;45.26
68366;BME280;55283;51.466;5.478;2022-12-07T12:24:31;101491.19;;;20.15;45.24
68366;BME280;55283;51.466;5.478;2022-12-07T12:27:31;101486.81;;;20.13;45.04
68366;BME280;55283;51.466;5.478;2022-12-07T12:30:01;101481.22;;;20.13;45.12
68366;BME280;55283;51.466;5.478;2022-12-07T12:32:42;101482.06;;;20.10;45.15
68366;BME280;55283;51.466;5.478;2022-12-07T12:35:31;101476.09;;;20.08;45.12
68366;BME280;55283;51.466;5.478;2022-12-07T12:40:59;101463.69;;;20.09;45.20
68366;BME280;55283;51.466;5.478;2022-12-07T12:43:50;101466.09;;;20.07;45.14
68366;BME280;55283;51.466;5.478;2022-12-07T12:49:13;101458.06;;;20.09;45.12
68366;BME280;55283;51.466;5.478;2022-12-07T12:51:51;101446.09;;;20.09;44.79
68366;BME280;55283;51.466;5.478;2022-12-07T12:59:31;101445.63;;;20.14;44.78
68366;BME280;55283;51.466;5.478;2022-12-07T13:02:31;101443.59;;;20.15;44.83
68366;BME280;55283;51.466;5.478;2022-12-07T13:18:17;101420.22;;;20.01;44.71
68366;BME280;55283;51.466;5.478;2022-12-07T13:23:39;101413.91;;;19.97;45.33
68366;BME280;55283;51.466;5.478;2022-12-07T13:29:04;101420.28;;;19.98;45.26
68366;BME280;55283;51.466;5.478;2022-12-07T13:31:38;101415.31;;;20.09;45.54
68366;BME280;55283;51.466;5.478;2022-12-07T13:36:52;101412.13;;;20.07;45.80
68366;BME280;55283;51.466;5.478;2022-12-07T13:39:20;101409.84;;;20.02;45.24
68366;BME280;55283;51.466;5.478;2022-12-07T13:41:55;101403.94;;;19.96;45.09
68366;BME280;55283;51.466;5.478;2022-12-07T13:44:23;101405.44;;;20.01;44.99
68366;BME280;55283;51.466;5.478;2022-12-07T13:49:23;101399.84;;;20.01;45.08
68366;BME280;55283;51.466;5.478;2022-12-07T13:51:49;101402.22;;;20.02;45.17
68366;BME280;55283;51.466;5.478;2022-12-07T13:54:16;101399.06;;;20.00;44.88
68366;BME280;55283;51.466;5.478;2022-12-07T13:56:42;101387.94;;;19.97;44.87
68366;BME280;55283;51.466;5.478;2022-12-07T13:59:26;101391.88;;;19.99;44.91
68366;BME280;55283;51.466;5.478;2022-12-07T14:01:53;101403.88;;;20.00;45.09
68366;BME280;55283;51.466;5.478;2022-12-07T14:04:34;101391.50;;;19.97;45.01
68366;BME280;55283;51.466;5.478;2022-12-07T14:07:17;101391.09;;;19.99;45.21
68366;BME280;55283;51.466;5.478;2022-12-07T14:09:56;101387.06;;;20.00;44.94
68366;BME280;55283;51.466;5.478;2022-12-07T14:12:23;101381.53;;;19.96;44.99
68366;BME280;55283;51.466;5.478;2022-12-07T14:14:49;101379.53;;;19.97;45.23
68366;BME280;55283;51.466;5.478;2022-12-07T14:17:17;101380.25;;;20.01;44.93
68366;BME280;55283;51.466;5.478;2022-12-07T14:24:49;101375.44;;;20.01;44.76
68366;BME280;55283;51.466;5.478;2022-12-07T14:27:20;101354.03;;;19.91;44.85
68366;BME280;55283;51.466;5.478;2022-12-07T14:29:46;101367.91;;;19.98;44.99
68366;BME280;55283;51.466;5.478;2022-12-07T14:32:21;101357.94;;;19.97;44.86
68366;BME280;55283;51.466;5.478;2022-12-07T14:34:56;101363.94;;;19.96;44.84
68366;BME280;55283;51.466;5.478;2022-12-07T14:37:23;101370.66;;;20.02;44.73
68366;BME280;55283;51.466;5.478;2022-12-07T14:39:49;101367.03;;;20.01;44.80
68366;BME280;55283;51.466;5.478;2022-12-07T14:42:14;101360.72;;;19.97;44.76
68366;BME280;55283;51.466;5.478;2022-12-07T14:44:39;101362.75;;;19.97;44.56
68366;BME280;55283;51.466;5.478;2022-12-07T14:47:05;101358.72;;;19.98;44.78
68366;BME280;55283;51.466;5.478;2022-12-07T14:49:30;101359.50;;;19.98;44.73
68366;BME280;55283;51.466;5.478;2022-12-07T14:51:56;101343.31;;;19.86;44.56
68366;BME280;55283;51.466;5.478;2022-12-07T14:54:26;101346.50;;;19.88;44.63
68366;BME280;55283;51.466;5.478;2022-12-07T14:56:55;101356.41;;;19.93;44.72
68366;BME280;55283;51.466;5.478;2022-12-07T14:59:20;101351.25;;;19.91;44.66
68366;BME280;55283;51.466;5.478;2022-12-07T15:01:45;101346.06;;;19.89;44.69
68366;BME280;55283;51.466;5.478;2022-12-07T15:04:11;101334.16;;;19.85;44.52
68366;BME280;55283;51.466;5.478;2022-12-07T15:06:37;101349.22;;;19.92;44.79
68366;BME280;55283;51.466;5.478;2022-12-07T15:09:02;101349.28;;;19.88;45.00
68366;BME280;55283;51.466;5.478;2022-12-07T15:11:28;101339.31;;;19.87;44.75
68366;BME280;55283;51.466;5.478;2022-12-07T15:13:54;101348.50;;;19.87;44.87
68366;BME280;55283;51.466;5.478;2022-12-07T15:16:38;101349.72;;;19.86;44.83
68366;BME280;55283;51.466;5.478;2022-12-07T15:19:20;101340.53;;;19.86;44.91
68366;BME280;55283;51.466;5.478;2022-12-07T15:21:48;101345.34;;;19.85;44.71